sensor_id;sensor_type;location;lat;lon;timestamp;temperature;humidity
72277;SHT30;61204;49.980;8.358;2023-02-17T00:00:54;4.75;95.12
72277;SHT30;61204;49.980;8.358;2023-02-17T00:03:20;4.82;94.92
72277;SHT30;61204;49.980;8.358;2023-02-17T00:05:45;4.79;94.86
72277;SHT30;61204;49.980;8.358;2023-02-17T00:08:11;4.73;94.92
72277;SHT30;61204;49.980;8.358;2023-02-17T00:10:36;4.72;94.94
72277;SHT30;61204;49.980;8.358;2023-02-17T00:13:04;4.73;95.16
72277;SHT30;61204;49.980;8.358;2023-02-17T00:15:30;4.75;95.16
72277;SHT30;61204;49.980;8.358;2023-02-17T00:17:55;4.72;95.46
72277;SHT30;61204;49.980;8.358;2023-02-17T00:20:21;4.73;95.45
72277;SHT30;61204;49.980;8.358;2023-02-17T00:22:46;4.73;95.51
72277;SHT30;61204;49.980;8.358;2023-02-17T00:25:11;4.75;95.59
72277;SHT30;61204;49.980;8.358;2023-02-17T00:27:37;4.73;95.51
72277;SHT30;61204;49.980;8.358;2023-02-17T00:30:03;4.73;95.42
72277;SHT30;61204;49.980;8.358;2023-02-17T00:32:29;4.76;95.47
72277;SHT30;61204;49.980;8.358;2023-02-17T00:34:59;4.76;95.32
72277;SHT30;61204;49.980;8.358;2023-02-17T00:37:24;4.79;95.40
72277;SHT30;61204;49.980;8.358;2023-02-17T00:39:52;4.79;95.39
72277;SHT30;61204;49.980;8.358;2023-02-17T00:42:18;4.82;95.53
72277;SHT30;61204;49.980;8.358;2023-02-17T00:44:43;4.82;95.50
72277;SHT30;61204;49.980;8.358;2023-02-17T00:47:09;4.85;95.49
72277;SHT30;61204;49.980;8.358;2023-02-17T00:49:37;4.89;95.62
72277;SHT30;61204;49.980;8.358;2023-02-17T00:52:02;4.89;95.63
72277;SHT30;61204;49.980;8.358;2023-02-17T00:54:30;4.90;95.53
72277;SHT30;61204;49.980;8.358;2023-02-17T00:56:55;4.99;95.48
72277;SHT30;61204;49.980;8.358;2023-02-17T00:59:21;4.96;95.16
72277;SHT30;61204;49.980;8.358;2023-02-17T01:01:46;4.97;95.12
72277;SHT30;61204;49.980;8.358;2023-02-17T01:04:14;5.07;95.02
72277;SHT30;61204;49.980;8.358;2023-02-17T01:06:39;5.17;94.52
72277;SHT30;61204;49.980;8.358;2023-02-17T01:09:06;5.17;94.38
72277;SHT30;61204;49.980;8.358;2023-02-17T01:11:37;5.14;94.52
72277;SHT30;61204;49.980;8.358;2023-02-17T01:14:03;5.17;94.54
72277;SHT30;61204;49.980;8.358;2023-02-17T01:16:33;5.17;94.74
72277;SHT30;61204;49.980;8.358;2023-02-17T01:19:06;5.19;94.81
72277;SHT30;61204;49.980;8.358;2023-02-17T01:21:35;5.24;94.88
72277;SHT30;61204;49.980;8.358;2023-02-17T01:24:02;5.24;94.96
72277;SHT30;61204;49.980;8.358;2023-02-17T01:26:31;5.27;94.88
72277;SHT30;61204;49.980;8.358;2023-02-17T01:28:58;5.30;94.86
72277;SHT30;61204;49.980;8.358;2023-02-17T01:31:25;5.32;94.89
72277;SHT30;61204;49.980;8.358;2023-02-17T01:33:52;5.32;94.83
72277;SHT30;61204;49.980;8.358;2023-02-17T01:36:20;5.34;94.86
72277;SHT30;61204;49.980;8.358;2023-02-17T01:38:46;5.41;94.66
72277;SHT30;61204;49.980;8.358;2023-02-17T01:41:16;5.40;94.63
72277;SHT30;61204;49.980;8.358;2023-02-17T01:46:45;5.44;94.44
72277;SHT30;61204;49.980;8.358;2023-02-17T01:49:26;5.44;94.51
72277;SHT30;61204;49.980;8.358;2023-02-17T01:52:03;5.45;94.51
72277;SHT30;61204;49.980;8.358;2023-02-17T01:55:07;5.49;94.72
72277;SHT30;61204;49.980;8.358;2023-02-17T01:57:38;5.47;94.85
72277;SHT30;61204;49.980;8.358;2023-02-17T02:00:09;5.52;94.86
72277;SHT30;61204;49.980;8.358;2023-02-17T02:02:39;5.55;94.98
72277;SHT30;61204;49.980;8.358;2023-02-17T02:05:08;5.59;95.04
72277;SHT30;61204;49.980;8.358;2023-02-17T02:07:38;5.59;95.13
72277;SHT30;61204;49.980;8.358;2023-02-17T02:10:06;5.65;95.13
72277;SHT30;61204;49.980;8.358;2023-02-17T02:12:35;5.73;95.09
72277;SHT30;61204;49.980;8.358;2023-02-17T02:15:12;5.78;94.92
72277;SHT30;61204;49.980;8.358;2023-02-17T02:20:45;5.90;94.91
72277;SHT30;61204;49.980;8.358;2023-02-17T02:29:44;5.96;94.33
72277;SHT30;61204;49.980;8.358;2023-02-17T02:38:01;6.21;94.15
72277;SHT30;61204;49.980;8.358;2023-02-17T02:40:40;6.31;94.29
72277;SHT30;61204;49.980;8.358;2023-02-17T02:43:10;6.55;94.75
72277;SHT30;61204;49.980;8.358;2023-02-17T02:45:36;6.66;94.44
72277;SHT30;61204;49.980;8.358;2023-02-17T02:48:02;6.92;94.47
72277;SHT30;61204;49.980;8.358;2023-02-17T02:50:40;7.31;93.83
72277;SHT30;61204;49.980;8.358;2023-02-17T03:01:50;8.44;90.30
72277;SHT30;61204;49.980;8.358;2023-02-17T03:04:25;8.56;90.11
72277;SHT30;61204;49.980;8.358;2023-02-17T03:09:51;8.69;89.77
72277;SHT30;61204;49.980;8.358;2023-02-17T03:12:21;8.70;89.81
72277;SHT30;61204;49.980;8.358;2023-02-17T03:14:50;8.77;89.59
72277;SHT30;61204;49.980;8.358;2023-02-17T03:17:19;8.79;89.49
72277;SHT30;61204;49.980;8.358;2023-02-17T03:19:45;8.83;89.27
72277;SHT30;61204;49.980;8.358;2023-02-17T03:22:22;9.04;88.78
72277;SHT30;61204;49.980;8.358;2023-02-17T03:24:52;9.03;88.78
72277;SHT30;61204;49.980;8.358;2023-02-17T03:27:18;9.07;88.65
72277;SHT30;61204;49.980;8.358;2023-02-17T03:29:46;9.13;88.48
72277;SHT30;61204;49.980;8.358;2023-02-17T03:32:11;9.18;88.17
72277;SHT30;61204;49.980;8.358;2023-02-17T03:34:37;9.20;88.22
72277;SHT30;61204;49.980;8.358;2023-02-17T03:37:04;9.21;88.33
72277;SHT30;61204;49.980;8.358;2023-02-17T03:39:30;9.18;88.47
72277;SHT30;61204;49.980;8.358;2023-02-17T03:41:56;9.17;88.73
72277;SHT30;61204;49.980;8.358;2023-02-17T03:44:21;9.31;88.63
72277;SHT30;61204;49.980;8.358;2023-02-17T03:46:48;9.45;88.30
72277;SHT30;61204;49.980;8.358;2023-02-17T03:49:14;9.58;88.16
72277;SHT30;61204;49.980;8.358;2023-02-17T03:51:39;9.67;88.06
72277;SHT30;61204;49.980;8.358;2023-02-17T03:54:05;9.72;87.78
72277;SHT30;61204;49.980;8.358;2023-02-17T03:56:31;9.75;87.89
72277;SHT30;61204;49.980;8.358;2023-02-17T03:58:56;9.66;88.30
72277;SHT30;61204;49.980;8.358;2023-02-17T04:01:22;9.73;88.16
72277;SHT30;61204;49.980;8.358;2023-02-17T04:03:48;9.70;88.28
72277;SHT30;61204;49.980;8.358;2023-02-17T04:06:13;9.73;88.31
72277;SHT30;61204;49.980;8.358;2023-02-17T04:08:39;9.73;88.20
72277;SHT30;61204;49.980;8.358;2023-02-17T04:11:06;9.82;87.86
72277;SHT30;61204;49.980;8.358;2023-02-17T04:13:32;9.79;88.07
72277;SHT30;61204;49.980;8.358;2023-02-17T04:15:59;9.73;88.10
72277;SHT30;61204;49.980;8.358;2023-02-17T04:18:26;9.66;88.63
72277;SHT30;61204;49.980;8.358;2023-02-17T04:20:52;9.73;88.30
72277;SHT30;61204;49.980;8.358;2023-02-17T04:23:18;9.69;88.34
72277;SHT30;61204;49.980;8.358;2023-02-17T04:25:45;9.69;88.49
72277;SHT30;61204;49.980;8.358;2023-02-17T04:28:15;9.62;88.71
72277;SHT30;61204;49.980;8.358;2023-02-17T04:30:43;9.69;88.70
72277;SHT30;61204;49.980;8.358;2023-02-17T04:33:11;9.69;88.36
72277;SHT30;61204;49.980;8.358;2023-02-17T04:35:39;9.63;88.75
72277;SHT30;61204;49.980;8.358;2023-02-17T04:38:05;9.63;88.79
72277;SHT30;61204;49.980;8.358;2023-02-17T04:40:31;9.66;88.93
72277;SHT30;61204;49.980;8.358;2023-02-17T04:42:57;9.63;89.04
72277;SHT30;61204;49.980;8.358;2023-02-17T04:45:22;9.63;89.05
72277;SHT30;61204;49.980;8.358;2023-02-17T04:47:48;9.79;88.69
72277;SHT30;61204;49.980;8.358;2023-02-17T04:50:16;9.82;88.75
72277;SHT30;61204;49.980;8.358;2023-02-17T04:52:42;9.82;89.08
72277;SHT30;61204;49.980;8.358;2023-02-17T04:55:07;9.87;89.02
72277;SHT30;61204;49.980;8.358;2023-02-17T04:57:33;9.94;88.97
72277;SHT30;61204;49.980;8.358;2023-02-17T04:59:59;9.96;89.05
72277;SHT30;61204;49.980;8.358;2023-02-17T05:02:27;10.00;88.73
72277;SHT30;61204;49.980;8.358;2023-02-17T05:04:54;10.03;88.87
72277;SHT30;61204;49.980;8.358;2023-02-17T05:07:21;10.04;88.92
72277;SHT30;61204;49.980;8.358;2023-02-17T05:09:47;10.07;88.95
72277;SHT30;61204;49.980;8.358;2023-02-17T05:12:14;10.08;88.91
72277;SHT30;61204;49.980;8.358;2023-02-17T05:14:42;10.13;88.88
72277;SHT30;61204;49.980;8.358;2023-02-17T05:17:07;10.10;88.98
72277;SHT30;61204;49.980;8.358;2023-02-17T05:19:33;10.08;88.97
72277;SHT30;61204;49.980;8.358;2023-02-17T05:21:58;10.10;89.17
72277;SHT30;61204;49.980;8.358;2023-02-17T05:24:24;10.04;89.30
72277;SHT30;61204;49.980;8.358;2023-02-17T05:26:49;10.07;89.38
72277;SHT30;61204;49.980;8.358;2023-02-17T05:29:15;10.08;89.17
72277;SHT30;61204;49.980;8.358;2023-02-17T05:31:40;10.17;88.91
72277;SHT30;61204;49.980;8.358;2023-02-17T05:34:05;10.13;89.05
72277;SHT30;61204;49.980;8.358;2023-02-17T05:36:31;10.18;89.01
72277;SHT30;61204;49.980;8.358;2023-02-17T05:38:56;10.20;88.96
72277;SHT30;61204;49.980;8.358;2023-02-17T05:41:22;10.30;88.65
72277;SHT30;61204;49.980;8.358;2023-02-17T05:43:47;10.31;88.71
72277;SHT30;61204;49.980;8.358;2023-02-17T05:46:15;10.28;88.76
72277;SHT30;61204;49.980;8.358;2023-02-17T05:48:40;10.32;88.84
72277;SHT30;61204;49.980;8.358;2023-02-17T05:51:06;10.31;88.74
72277;SHT30;61204;49.980;8.358;2023-02-17T05:53:32;10.27;89.01
72277;SHT30;61204;49.980;8.358;2023-02-17T05:55:58;10.31;89.07
72277;SHT30;61204;49.980;8.358;2023-02-17T05:58:23;10.28;89.10
72277;SHT30;61204;49.980;8.358;2023-02-17T06:00:49;10.30;89.12
72277;SHT30;61204;49.980;8.358;2023-02-17T06:03:15;10.31;89.22
72277;SHT30;61204;49.980;8.358;2023-02-17T06:05:41;10.28;89.63
72277;SHT30;61204;49.980;8.358;2023-02-17T06:08:06;10.31;89.42
72277;SHT30;61204;49.980;8.358;2023-02-17T06:10:32;10.25;89.61
72277;SHT30;61204;49.980;8.358;2023-02-17T06:12:57;10.17;89.90
72277;SHT30;61204;49.980;8.358;2023-02-17T06:15:26;10.24;89.82
72277;SHT30;61204;49.980;8.358;2023-02-17T06:17:51;10.17;89.98
72277;SHT30;61204;49.980;8.358;2023-02-17T06:20:19;10.08;90.28
72277;SHT30;61204;49.980;8.358;2023-02-17T06:22:44;10.08;90.38
72277;SHT30;61204;49.980;8.358;2023-02-17T06:25:10;10.00;90.49
72277;SHT30;61204;49.980;8.358;2023-02-17T06:27:35;9.98;90.63
72277;SHT30;61204;49.980;8.358;2023-02-17T06:30:02;10.00;90.84
72277;SHT30;61204;49.980;8.358;2023-02-17T06:32:30;10.00;90.47
72277;SHT30;61204;49.980;8.358;2023-02-17T06:34:56;9.96;90.79
72277;SHT30;61204;49.980;8.358;2023-02-17T06:37:21;9.98;90.96
72277;SHT30;61204;49.980;8.358;2023-02-17T06:39:47;10.00;90.90
72277;SHT30;61204;49.980;8.358;2023-02-17T06:42:12;10.00;91.05
72277;SHT30;61204;49.980;8.358;2023-02-17T06:44:37;10.01;91.02
72277;SHT30;61204;49.980;8.358;2023-02-17T06:47:03;9.93;91.34
72277;SHT30;61204;49.980;8.358;2023-02-17T06:49:28;9.94;91.38
72277;SHT30;61204;49.980;8.358;2023-02-17T06:51:54;9.97;91.25
72277;SHT30;61204;49.980;8.358;2023-02-17T06:54:19;9.96;91.23
72277;SHT30;61204;49.980;8.358;2023-02-17T06:56:45;9.91;91.56
72277;SHT30;61204;49.980;8.358;2023-02-17T06:59:10;10.01;91.13
72277;SHT30;61204;49.980;8.358;2023-02-17T07:01:36;10.04;90.98
72277;SHT30;61204;49.980;8.358;2023-02-17T07:04:01;10.03;91.09
72277;SHT30;61204;49.980;8.358;2023-02-17T07:06:27;9.98;91.33
72277;SHT30;61204;49.980;8.358;2023-02-17T07:08:52;10.05;91.28
72277;SHT30;61204;49.980;8.358;2023-02-17T07:11:18;9.96;91.61
72277;SHT30;61204;49.980;8.358;2023-02-17T07:13:44;10.04;91.20
72277;SHT30;61204;49.980;8.358;2023-02-17T07:16:11;10.05;90.97
72277;SHT30;61204;49.980;8.358;2023-02-17T07:18:38;10.07;91.04
72277;SHT30;61204;49.980;8.358;2023-02-17T07:21:05;10.15;90.76
72277;SHT30;61204;49.980;8.358;2023-02-17T07:23:31;10.24;90.40
72277;SHT30;61204;49.980;8.358;2023-02-17T07:26:02;10.24;90.22
72277;SHT30;61204;49.980;8.358;2023-02-17T07:28:29;10.30;90.22
72277;SHT30;61204;49.980;8.358;2023-02-17T07:30:54;10.34;89.85
72277;SHT30;61204;49.980;8.358;2023-02-17T07:33:20;10.37;89.64
72277;SHT30;61204;49.980;8.358;2023-02-17T07:35:45;10.39;89.39
72277;SHT30;61204;49.980;8.358;2023-02-17T07:38:11;10.53;88.84
72277;SHT30;61204;49.980;8.358;2023-02-17T07:40:37;10.48;89.01
72277;SHT30;61204;49.980;8.358;2023-02-17T07:43:06;10.50;88.76
72277;SHT30;61204;49.980;8.358;2023-02-17T07:45:31;10.56;88.45
72277;SHT30;61204;49.980;8.358;2023-02-17T07:47:57;10.56;88.56
72277;SHT30;61204;49.980;8.358;2023-02-17T07:50:23;10.60;88.36
72277;SHT30;61204;49.980;8.358;2023-02-17T07:52:49;10.62;88.35
72277;SHT30;61204;49.980;8.358;2023-02-17T07:55:15;10.72;87.71
72277;SHT30;61204;49.980;8.358;2023-02-17T07:57:41;10.73;87.44
72277;SHT30;61204;49.980;8.358;2023-02-17T08:00:06;10.84;87.01
72277;SHT30;61204;49.980;8.358;2023-02-17T08:02:32;10.83;86.71
72277;SHT30;61204;49.980;8.358;2023-02-17T08:04:58;10.86;86.69
72277;SHT30;61204;49.980;8.358;2023-02-17T08:07:26;10.94;86.11
72277;SHT30;61204;49.980;8.358;2023-02-17T08:09:54;11.08;85.21
72277;SHT30;61204;49.980;8.358;2023-02-17T08:12:38;11.03;85.43
72277;SHT30;61204;49.980;8.358;2023-02-17T08:15:22;11.20;84.49
72277;SHT30;61204;49.980;8.358;2023-02-17T08:17:48;11.25;84.48
72277;SHT30;61204;49.980;8.358;2023-02-17T08:20:13;11.24;84.21
72277;SHT30;61204;49.980;8.358;2023-02-17T08:22:42;11.22;84.50
72277;SHT30;61204;49.980;8.358;2023-02-17T08:25:10;11.30;84.26
72277;SHT30;61204;49.980;8.358;2023-02-17T08:27:35;11.28;84.31
72277;SHT30;61204;49.980;8.358;2023-02-17T08:30:04;11.20;84.77
72277;SHT30;61204;49.980;8.358;2023-02-17T08:32:30;11.36;84.10
72277;SHT30;61204;49.980;8.358;2023-02-17T08:34:56;11.36;84.02
72277;SHT30;61204;49.980;8.358;2023-02-17T08:37:22;11.42;83.93
72277;SHT30;61204;49.980;8.358;2023-02-17T08:39:47;11.45;84.10
72277;SHT30;61204;49.980;8.358;2023-02-17T08:42:12;11.39;85.45
72277;SHT30;61204;49.980;8.358;2023-02-17T08:44:38;11.31;87.13
72277;SHT30;61204;49.980;8.358;2023-02-17T08:47:04;11.28;87.55
72277;SHT30;61204;49.980;8.358;2023-02-17T08:49:31;11.11;88.40
72277;SHT30;61204;49.980;8.358;2023-02-17T08:51:57;11.08;88.24
72277;SHT30;61204;49.980;8.358;2023-02-17T08:54:23;10.97;89.10
72277;SHT30;61204;49.980;8.358;2023-02-17T08:56:49;10.92;89.40
72277;SHT30;61204;49.980;8.358;2023-02-17T08:59:14;10.97;89.06
72277;SHT30;61204;49.980;8.358;2023-02-17T09:01:40;10.93;89.79
72277;SHT30;61204;49.980;8.358;2023-02-17T09:04:08;10.86;90.13
72277;SHT30;61204;49.980;8.358;2023-02-17T09:06:38;10.89;90.38
72277;SHT30;61204;49.980;8.358;2023-02-17T09:09:07;10.83;90.90
72277;SHT30;61204;49.980;8.358;2023-02-17T09:11:34;10.81;90.72
72277;SHT30;61204;49.980;8.358;2023-02-17T09:13:59;10.73;91.41
72277;SHT30;61204;49.980;8.358;2023-02-17T09:16:25;10.72;91.65
72277;SHT30;61204;49.980;8.358;2023-02-17T09:18:51;10.79;91.53
72277;SHT30;61204;49.980;8.358;2023-02-17T09:21:17;10.76;91.83
72277;SHT30;61204;49.980;8.358;2023-02-17T09:23:44;10.77;91.75
72277;SHT30;61204;49.980;8.358;2023-02-17T09:26:12;10.80;91.79
72277;SHT30;61204;49.980;8.358;2023-02-17T09:28:39;10.76;92.07
72277;SHT30;61204;49.980;8.358;2023-02-17T09:31:09;10.80;92.12
72277;SHT30;61204;49.980;8.358;2023-02-17T09:33:43;10.80;92.37
72277;SHT30;61204;49.980;8.358;2023-02-17T09:36:14;10.81;92.12
72277;SHT30;61204;49.980;8.358;2023-02-17T09:38:42;10.86;92.39
72277;SHT30;61204;49.980;8.358;2023-02-17T09:41:25;10.90;91.56
72277;SHT30;61204;49.980;8.358;2023-02-17T09:43:51;10.92;91.76
72277;SHT30;61204;49.980;8.358;2023-02-17T09:46:26;11.01;91.65
72277;SHT30;61204;49.980;8.358;2023-02-17T09:48:56;11.06;91.36
72277;SHT30;61204;49.980;8.358;2023-02-17T09:51:38;11.17;91.05
72277;SHT30;61204;49.980;8.358;2023-02-17T09:54:20;11.30;90.10
72277;SHT30;61204;49.980;8.358;2023-02-17T09:57:00;11.42;90.41
72277;SHT30;61204;49.980;8.358;2023-02-17T09:59:36;11.65;89.49
72277;SHT30;61204;49.980;8.358;2023-02-17T10:02:16;11.77;87.67
72277;SHT30;61204;49.980;8.358;2023-02-17T10:04:51;11.87;88.00
72277;SHT30;61204;49.980;8.358;2023-02-17T10:07:26;11.93;87.51
72277;SHT30;61204;49.980;8.358;2023-02-17T10:10:03;11.87;87.17
72277;SHT30;61204;49.980;8.358;2023-02-17T10:12:39;11.94;86.70
72277;SHT30;61204;49.980;8.358;2023-02-17T10:15:15;11.98;86.33
72277;SHT30;61204;49.980;8.358;2023-02-17T10:20:30;12.13;85.96
72277;SHT30;61204;49.980;8.358;2023-02-17T10:23:12;12.20;86.03
72277;SHT30;61204;49.980;8.358;2023-02-17T10:29:13;12.39;84.91
72277;SHT30;61204;49.980;8.358;2023-02-17T10:34:36;12.44;84.53
72277;SHT30;61204;49.980;8.358;2023-02-17T10:37:32;12.44;84.12
72277;SHT30;61204;49.980;8.358;2023-02-17T10:39:59;12.45;85.11
72277;SHT30;61204;49.980;8.358;2023-02-17T10:44:57;12.66;83.54
72277;SHT30;61204;49.980;8.358;2023-02-17T10:47:27;12.79;83.06
72277;SHT30;61204;49.980;8.358;2023-02-17T10:49:55;12.82;82.81
72277;SHT30;61204;49.980;8.358;2023-02-17T10:52:29;12.86;82.81
72277;SHT30;61204;49.980;8.358;2023-02-17T10:55:11;12.97;82.51
72277;SHT30;61204;49.980;8.358;2023-02-17T10:57:41;12.94;82.00
72277;SHT30;61204;49.980;8.358;2023-02-17T11:00:14;12.96;82.85
72277;SHT30;61204;49.980;8.358;2023-02-17T11:02:46;13.03;82.68
72277;SHT30;61204;49.980;8.358;2023-02-17T11:05:26;13.07;82.31
72277;SHT30;61204;49.980;8.358;2023-02-17T11:08:19;13.22;81.92
72277;SHT30;61204;49.980;8.358;2023-02-17T11:11:04;13.54;81.32
72277;SHT30;61204;49.980;8.358;2023-02-17T11:16:45;13.97;78.77
72277;SHT30;61204;49.980;8.358;2023-02-17T11:19:33;14.20;78.71
72277;SHT30;61204;49.980;8.358;2023-02-17T11:22:01;14.31;77.96
72277;SHT30;61204;49.980;8.358;2023-02-17T11:24:33;14.48;77.32
72277;SHT30;61204;49.980;8.358;2023-02-17T11:27:08;14.44;77.69
72277;SHT30;61204;49.980;8.358;2023-02-17T11:29:35;14.54;77.45
72277;SHT30;61204;49.980;8.358;2023-02-17T11:32:02;14.82;76.28
72277;SHT30;61204;49.980;8.358;2023-02-17T11:34:32;14.93;75.88
72277;SHT30;61204;49.980;8.358;2023-02-17T11:37:14;15.17;74.80
72277;SHT30;61204;49.980;8.358;2023-02-17T11:39:50;15.44;74.98
72277;SHT30;61204;49.980;8.358;2023-02-17T11:42:25;15.34;74.72
72277;SHT30;61204;49.980;8.358;2023-02-17T11:44:55;15.49;74.25
72277;SHT30;61204;49.980;8.358;2023-02-17T11:47:34;15.62;73.97
72277;SHT30;61204;49.980;8.358;2023-02-17T12:01:48;15.87;72.53
72277;SHT30;61204;49.980;8.358;2023-02-17T12:10:48;15.34;74.03
72277;SHT30;61204;49.980;8.358;2023-02-17T12:13:45;15.31;74.07
72277;SHT30;61204;49.980;8.358;2023-02-17T12:25:02;14.80;74.98
72277;SHT30;61204;49.980;8.358;2023-02-17T12:33:47;14.54;76.17
72277;SHT30;61204;49.980;8.358;2023-02-17T12:36:16;14.45;76.19
72277;SHT30;61204;49.980;8.358;2023-02-17T12:38:59;14.46;76.52
72277;SHT30;61204;49.980;8.358;2023-02-17T12:41:35;14.42;76.62
72277;SHT30;61204;49.980;8.358;2023-02-17T12:44:11;14.28;76.59
72277;SHT30;61204;49.980;8.358;2023-02-17T12:46:44;14.13;77.43
72277;SHT30;61204;49.980;8.358;2023-02-17T12:49:26;14.20;77.55
72277;SHT30;61204;49.980;8.358;2023-02-17T12:52:01;14.24;77.36
72277;SHT30;61204;49.980;8.358;2023-02-17T12:54:51;14.29;77.95
72277;SHT30;61204;49.980;8.358;2023-02-17T12:57:40;14.21;77.75
72277;SHT30;61204;49.980;8.358;2023-02-17T13:00:26;14.28;77.69
72277;SHT30;61204;49.980;8.358;2023-02-17T13:02:59;14.27;77.62
72277;SHT30;61204;49.980;8.358;2023-02-17T13:05:37;14.32;77.33
72277;SHT30;61204;49.980;8.358;2023-02-17T13:08:24;14.27;77.45
72277;SHT30;61204;49.980;8.358;2023-02-17T13:11:05;14.28;77.88
72277;SHT30;61204;49.980;8.358;2023-02-17T13:13:35;14.34;78.10
72277;SHT30;61204;49.980;8.358;2023-02-17T13:16:10;14.31;77.81
72277;SHT30;61204;49.980;8.358;2023-02-17T13:18:39;14.29;77.62
72277;SHT30;61204;49.980;8.358;2023-02-17T13:24:14;14.35;77.78
72277;SHT30;61204;49.980;8.358;2023-02-17T13:26:54;14.52;77.15
72277;SHT30;61204;49.980;8.358;2023-02-17T13:31:56;14.42;77.44
72277;SHT30;61204;49.980;8.358;2023-02-17T13:40:07;14.48;77.58
72277;SHT30;61204;49.980;8.358;2023-02-17T13:42:52;14.55;77.31
72277;SHT30;61204;49.980;8.358;2023-02-17T13:45:23;14.73;77.06
72277;SHT30;61204;49.980;8.358;2023-02-17T13:48:09;14.71;76.58
72277;SHT30;61204;49.980;8.358;2023-02-17T13:50:50;14.71;76.80
72277;SHT30;61204;49.980;8.358;2023-02-17T13:53:35;14.56;77.09
72277;SHT30;61204;49.980;8.358;2023-02-17T13:56:08;14.48;77.30
72277;SHT30;61204;49.980;8.358;2023-02-17T13:58:38;14.56;77.51
72277;SHT30;61204;49.980;8.358;2023-02-17T14:01:11;14.80;76.61
72277;SHT30;61204;49.980;8.358;2023-02-17T14:06:12;14.68;76.56
72277;SHT30;61204;49.980;8.358;2023-02-17T14:09:13;14.69;77.01
72277;SHT30;61204;49.980;8.358;2023-02-17T14:11:46;14.58;77.26
72277;SHT30;61204;49.980;8.358;2023-02-17T14:14:11;14.44;77.38
72277;SHT30;61204;49.980;8.358;2023-02-17T14:16:39;14.34;77.99
72277;SHT30;61204;49.980;8.358;2023-02-17T14:19:17;14.27;78.08
72277;SHT30;61204;49.980;8.358;2023-02-17T14:21:55;14.18;78.33
72277;SHT30;61204;49.980;8.358;2023-02-17T14:24:27;14.20;78.35
72277;SHT30;61204;49.980;8.358;2023-02-17T14:27:06;14.20;78.67
72277;SHT30;61204;49.980;8.358;2023-02-17T14:29:44;14.20;78.70
72277;SHT30;61204;49.980;8.358;2023-02-17T14:32:34;14.22;78.22
72277;SHT30;61204;49.980;8.358;2023-02-17T14:37:40;14.11;78.88
72277;SHT30;61204;49.980;8.358;2023-02-17T14:40:23;14.18;78.39
72277;SHT30;61204;49.980;8.358;2023-02-17T14:42:49;14.20;78.95
72277;SHT30;61204;49.980;8.358;2023-02-17T14:45:16;14.25;78.19
72277;SHT30;61204;49.980;8.358;2023-02-17T14:47:43;14.20;78.39
72277;SHT30;61204;49.980;8.358;2023-02-17T14:50:10;14.16;78.86
72277;SHT30;61204;49.980;8.358;2023-02-17T14:52:41;14.21;78.63
72277;SHT30;61204;49.980;8.358;2023-02-17T14:57:55;14.27;78.50
72277;SHT30;61204;49.980;8.358;2023-02-17T15:00:21;14.27;78.66
72277;SHT30;61204;49.980;8.358;2023-02-17T15:02:47;14.25;78.64
72277;SHT30;61204;49.980;8.358;2023-02-17T15:05:12;14.34;78.50
72277;SHT30;61204;49.980;8.358;2023-02-17T15:07:38;14.29;78.03
72277;SHT30;61204;49.980;8.358;2023-02-17T15:10:17;14.34;77.91
72277;SHT30;61204;49.980;8.358;2023-02-17T15:12:46;14.31;77.68
72277;SHT30;61204;49.980;8.358;2023-02-17T15:15:15;14.28;77.86
72277;SHT30;61204;49.980;8.358;2023-02-17T15:17:42;14.35;77.86
72277;SHT30;61204;49.980;8.358;2023-02-17T15:20:08;14.35;77.82
72277;SHT30;61204;49.980;8.358;2023-02-17T15:22:35;14.28;78.10
72277;SHT30;61204;49.980;8.358;2023-02-17T15:25:16;14.22;78.15
72277;SHT30;61204;49.980;8.358;2023-02-17T15:27:44;14.27;78.04
72277;SHT30;61204;49.980;8.358;2023-02-17T15:30:13;14.24;78.09
72277;SHT30;61204;49.980;8.358;2023-02-17T15:32:43;14.24;78.28
72277;SHT30;61204;49.980;8.358;2023-02-17T15:35:23;14.17;78.44
72277;SHT30;61204;49.980;8.358;2023-02-17T15:37:51;14.18;78.45
72277;SHT30;61204;49.980;8.358;2023-02-17T15:40:25;14.13;78.54
72277;SHT30;61204;49.980;8.358;2023-02-17T15:42:54;14.13;78.47
72277;SHT30;61204;49.980;8.358;2023-02-17T15:45:22;14.04;78.97
72277;SHT30;61204;49.980;8.358;2023-02-17T15:47:50;14.01;78.93
72277;SHT30;61204;49.980;8.358;2023-02-17T15:50:24;13.99;79.22
72277;SHT30;61204;49.980;8.358;2023-02-17T15:52:50;14.00;79.10
72277;SHT30;61204;49.980;8.358;2023-02-17T15:55:20;13.97;79.23
72277;SHT30;61204;49.980;8.358;2023-02-17T15:57:52;13.94;79.10
72277;SHT30;61204;49.980;8.358;2023-02-17T16:02:49;13.86;79.67
72277;SHT30;61204;49.980;8.358;2023-02-17T16:05:17;13.79;79.92
72277;SHT30;61204;49.980;8.358;2023-02-17T16:07:44;13.79;79.95
72277;SHT30;61204;49.980;8.358;2023-02-17T16:10:15;13.82;79.65
72277;SHT30;61204;49.980;8.358;2023-02-17T16:12:43;13.84;79.53
72277;SHT30;61204;49.980;8.358;2023-02-17T16:15:20;13.79;79.60
72277;SHT30;61204;49.980;8.358;2023-02-17T16:17:48;13.82;79.55
72277;SHT30;61204;49.980;8.358;2023-02-17T16:20:18;13.76;79.68
72277;SHT30;61204;49.980;8.358;2023-02-17T16:22:46;13.76;79.69
72277;SHT30;61204;49.980;8.358;2023-02-17T16:25:14;13.73;79.76
72277;SHT30;61204;49.980;8.358;2023-02-17T16:27:44;13.73;79.82
72277;SHT30;61204;49.980;8.358;2023-02-17T16:30:18;13.69;79.87
72277;SHT30;61204;49.980;8.358;2023-02-17T16:32:46;13.66;79.96
72277;SHT30;61204;49.980;8.358;2023-02-17T16:35:23;13.75;79.79
72277;SHT30;61204;49.980;8.358;2023-02-17T16:37:57;13.62;80.26
72277;SHT30;61204;49.980;8.358;2023-02-17T16:40:28;13.65;79.94
72277;SHT30;61204;49.980;8.358;2023-02-17T16:42:56;13.62;80.15
72277;SHT30;61204;49.980;8.358;2023-02-17T16:45:23;13.66;80.09
72277;SHT30;61204;49.980;8.358;2023-02-17T16:47:54;13.56;80.31
72277;SHT30;61204;49.980;8.358;2023-02-17T16:50:29;13.56;80.28
72277;SHT30;61204;49.980;8.358;2023-02-17T16:53:03;13.54;80.46
72277;SHT30;61204;49.980;8.358;2023-02-17T16:55:34;13.52;80.43
72277;SHT30;61204;49.980;8.358;2023-02-17T16:58:01;13.52;80.53
72277;SHT30;61204;49.980;8.358;2023-02-17T17:00:30;13.45;80.79
72277;SHT30;61204;49.980;8.358;2023-02-17T17:02:57;13.45;80.92
72277;SHT30;61204;49.980;8.358;2023-02-17T17:05:26;13.41;80.88
72277;SHT30;61204;49.980;8.358;2023-02-17T17:07:53;13.41;80.94
72277;SHT30;61204;49.980;8.358;2023-02-17T17:10:23;13.37;80.98
72277;SHT30;61204;49.980;8.358;2023-02-17T17:12:51;13.29;81.28
72277;SHT30;61204;49.980;8.358;2023-02-17T17:15:17;13.28;81.48
72277;SHT30;61204;49.980;8.358;2023-02-17T17:17:46;13.14;81.94
72277;SHT30;61204;49.980;8.358;2023-02-17T17:20:19;13.12;82.02
72277;SHT30;61204;49.980;8.358;2023-02-17T17:22:48;13.12;81.86
72277;SHT30;61204;49.980;8.358;2023-02-17T17:25:14;13.14;81.88
72277;SHT30;61204;49.980;8.358;2023-02-17T17:27:40;13.04;82.13
72277;SHT30;61204;49.980;8.358;2023-02-17T17:30:11;13.15;81.58